ポンタ・デルガダ の空港の天気 - METARとTAF

ポンタ・デルガダ空港 ( LPPD / PDL ) - ポルトガル ポンタ・デルガダ (サンミゲル島)
飛行場実況気象(Metar)
観測時間04/21 16:30 AZOST (04/21 16:30 UTC)
風向・風速北北東 6m/s
視程10km以上
天気現象
少しの雲 雲底高度 610m
気温18℃
湿度68%
気圧1025hPa
METARLPPD 211630Z 03012KT 360V070 9999 FEW020 18/12 Q1025
過去の天気等 Google飛行場航空写真 Wunderground天気予報

過去48時間のMETAR

飛行場予報(TAF)
発表時間: 4/21 11:00 AZOST (4/21 11:00 UTC)
予報対象時間: 21日12時 AZOST ~ 22日12時 AZOST
風向・風速北北東 7m/s
視程10km以上
少しの雲 雲底高度 460m
全天の8割程度の雲 雲底高度 910m
21日12時 AZOST ~ 22日2時 AZOST に一時的に
全天の4割程度の雲 雲底高度 610m
全天の4割程度の雲 雲底高度 1070m
21日21時 AZOST ~ 21日24時 AZOST に徐々に
風向・風速北北西 4m/s
22日2時 AZOST ~ 22日5時 AZOST に徐々に
風向・風速北西 6m/s
全天の4割程度の雲 雲底高度 240m
全天の4割程度の雲 雲底高度 460m
22日5時 AZOST ~ 22日11時 AZOST に一時的に
視程6000m
天気現象弱い雨
全天の4割程度の雲 雲底高度 180m
全天の8割程度の雲 雲底高度 370m
TAF LPPD 211100Z 2112/2212 03013KT 9999 FEW015 BKN030
TEMPO 2112/2202 SCT020 SCT035
BECMG 2121/2124 34008KT
BECMG 2202/2205 32012KT SCT008 SCT015
TEMPO 2205/2211 6000 -RA SCT006 BKN012